KTIW/TIW METAR and TAF weather

Enter ICAO airport designator
Station Type Date Time Source
KTIW METAR 2022/01/18 06:53 UTC NOAA

KTIW 180653Z AUTO 21006KT 10SM OVC017 07/06 A3000 RMK AO2 SLP162 T00670061 $


Station Type Date Time Source
KTIW Decoded METAR 2022/01/18 06:53 UTC NOAA

Tacoma, Tacoma Narrows Airport, WA, United States (KTIW) 47-16-03N 122-34-34W 96M
Jan 18, 2022 - 01:53 AM EST / 2022.01.18 0653 UTC
Wind: from the SSW (210 degrees) at 7 MPH (6 KT):0
Visibility: 10 mile(s):0
Sky conditions: overcast
Temperature: 44.1 F (6.7 C)
Dew Point: 43.0 F (6.1 C)
Relative Humidity: 95%
Pressure (altimeter): 30 in. Hg (1015 hPa)
ob: KTIW 180653Z AUTO 21006KT 10SM OVC017 07/06 A3000 RMK AO2 SLP162 T00670061
cycle: 7

Station Type Date Time Source
KTIW TAF UTC NOAA

Error!

Example: see airport list